sensor_id;sensor_type;location;lat;lon;timestamp;pressure;altitude;pressure_sealevel;temperature;humidity
39141;BME280;24875;48.436;10.298;2022-12-01T00:01:13;96675.50;;;3.64;100.00
39141;BME280;24875;48.436;10.298;2022-12-01T00:03:40;96672.88;;;3.64;100.00
39141;BME280;24875;48.436;10.298;2022-12-01T00:06:09;96670.66;;;3.80;100.00
39141;BME280;24875;48.436;10.298;2022-12-01T00:08:36;96668.81;;;3.71;100.00
39141;BME280;24875;48.436;10.298;2022-12-01T00:11:04;96669.28;;;3.76;100.00
39141;BME280;24875;48.436;10.298;2022-12-01T00:13:31;96669.41;;;3.95;100.00
39141;BME280;24875;48.436;10.298;2022-12-01T00:16:08;96663.63;;;3.92;100.00
39141;BME280;24875;48.436;10.298;2022-12-01T00:18:35;96657.59;;;3.91;100.00
39141;BME280;24875;48.436;10.298;2022-12-01T00:21:01;96670.94;;;3.98;100.00
39141;BME280;24875;48.436;10.298;2022-12-01T00:23:28;96667.63;;;3.75;100.00
39141;BME280;24875;48.436;10.298;2022-12-01T00:26:01;96666.44;;;3.79;100.00
39141;BME280;24875;48.436;10.298;2022-12-01T00:28:27;96672.06;;;3.84;100.00
39141;BME280;24875;48.436;10.298;2022-12-01T00:30:55;96671.56;;;3.90;100.00
39141;BME280;24875;48.436;10.298;2022-12-01T00:33:22;96672.44;;;3.91;100.00
39141;BME280;24875;48.436;10.298;2022-12-01T00:35:48;96673.06;;;3.83;100.00
39141;BME280;24875;48.436;10.298;2022-12-01T00:38:15;96675.06;;;3.80;100.00
39141;BME280;24875;48.436;10.298;2022-12-01T00:40:42;96670.97;;;3.66;100.00
39141;BME280;24875;48.436;10.298;2022-12-01T00:43:08;96667.38;;;3.78;100.00
39141;BME280;24875;48.436;10.298;2022-12-01T00:45:35;96673.53;;;3.77;100.00
39141;BME280;24875;48.436;10.298;2022-12-01T00:48:03;96665.53;;;3.90;100.00
39141;BME280;24875;48.436;10.298;2022-12-01T00:50:29;96669.69;;;3.92;100.00
39141;BME280;24875;48.436;10.298;2022-12-01T00:52:56;96671.53;;;3.81;100.00
39141;BME280;24875;48.436;10.298;2022-12-01T00:55:22;96675.66;;;3.83;100.00
39141;BME280;24875;48.436;10.298;2022-12-01T00:57:49;96672.72;;;3.77;100.00
39141;BME280;24875;48.436;10.298;2022-12-01T01:00:16;96688.56;;;3.85;100.00
39141;BME280;24875;48.436;10.298;2022-12-01T01:02:43;96678.94;;;3.85;100.00
39141;BME280;24875;48.436;10.298;2022-12-01T01:05:11;96678.91;;;3.96;100.00
39141;BME280;24875;48.436;10.298;2022-12-01T01:07:37;96675.72;;;3.93;100.00
39141;BME280;24875;48.436;10.298;2022-12-01T01:10:05;96677.88;;;3.88;100.00
39141;BME280;24875;48.436;10.298;2022-12-01T01:12:32;96680.41;;;3.78;100.00
39141;BME280;24875;48.436;10.298;2022-12-01T01:14:58;96686.84;;;3.74;100.00
39141;BME280;24875;48.436;10.298;2022-12-01T01:17:25;96687.38;;;3.78;100.00
39141;BME280;24875;48.436;10.298;2022-12-01T01:19:51;96678.03;;;3.75;100.00
39141;BME280;24875;48.436;10.298;2022-12-01T01:22:19;96687.22;;;3.90;100.00
39141;BME280;24875;48.436;10.298;2022-12-01T01:24:46;96687.75;;;3.53;100.00
39141;BME280;24875;48.436;10.298;2022-12-01T01:27:12;96679.81;;;3.75;100.00
39141;BME280;24875;48.436;10.298;2022-12-01T01:29:39;96676.72;;;3.81;100.00
39141;BME280;24875;48.436;10.298;2022-12-01T01:32:06;96678.13;;;3.85;100.00
39141;BME280;24875;48.436;10.298;2022-12-01T01:34:33;96681.31;;;3.88;100.00
39141;BME280;24875;48.436;10.298;2022-12-01T01:36:59;96684.69;;;3.79;100.00
39141;BME280;24875;48.436;10.298;2022-12-01T01:39:28;96676.22;;;3.87;100.00
39141;BME280;24875;48.436;10.298;2022-12-01T01:41:54;96690.66;;;3.70;100.00
39141;BME280;24875;48.436;10.298;2022-12-01T01:44:47;96678.59;;;3.90;100.00
39141;BME280;24875;48.436;10.298;2022-12-01T01:47:15;96680.97;;;3.62;100.00
39141;BME280;24875;48.436;10.298;2022-12-01T01:49:44;96681.66;;;3.63;100.00
39141;BME280;24875;48.436;10.298;2022-12-01T01:52:12;96674.41;;;3.67;100.00
39141;BME280;24875;48.436;10.298;2022-12-01T01:54:43;96670.94;;;3.77;100.00
39141;BME280;24875;48.436;10.298;2022-12-01T01:57:14;96681.13;;;3.49;100.00
39141;BME280;24875;48.436;10.298;2022-12-01T01:59:44;96665.84;;;3.45;100.00
39141;BME280;24875;48.436;10.298;2022-12-01T02:02:13;96679.19;;;3.51;100.00
39141;BME280;24875;48.436;10.298;2022-12-01T02:04:44;96672.38;;;3.50;100.00
39141;BME280;24875;48.436;10.298;2022-12-01T02:07:15;96674.31;;;3.58;100.00
39141;BME280;24875;48.436;10.298;2022-12-01T02:09:43;96681.91;;;3.61;100.00
39141;BME280;24875;48.436;10.298;2022-12-01T02:12:17;96669.41;;;3.75;100.00
39141;BME280;24875;48.436;10.298;2022-12-01T02:15:16;96668.13;;;3.69;100.00
39141;BME280;24875;48.436;10.298;2022-12-01T02:17:55;96667.56;;;3.66;100.00
39141;BME280;24875;48.436;10.298;2022-12-01T02:21:02;96660.50;;;3.77;100.00
39141;BME280;24875;48.436;10.298;2022-12-01T02:23:56;96659.69;;;3.77;100.00
39141;BME280;24875;48.436;10.298;2022-12-01T02:26:38;96659.09;;;3.73;100.00
39141;BME280;24875;48.436;10.298;2022-12-01T02:29:20;96656.09;;;3.58;100.00
39141;BME280;24875;48.436;10.298;2022-12-01T02:31:57;96653.06;;;3.53;100.00
39141;BME280;24875;48.436;10.298;2022-12-01T02:34:28;96652.59;;;3.48;100.00
39141;BME280;24875;48.436;10.298;2022-12-01T02:37:01;96659.44;;;3.49;100.00
39141;BME280;24875;48.436;10.298;2022-12-01T02:39:32;96644.59;;;3.60;100.00
39141;BME280;24875;48.436;10.298;2022-12-01T02:42:04;96653.59;;;3.56;100.00
39141;BME280;24875;48.436;10.298;2022-12-01T02:44:37;96658.50;;;3.50;100.00
39141;BME280;24875;48.436;10.298;2022-12-01T02:47:10;96646.53;;;3.78;100.00
39141;BME280;24875;48.436;10.298;2022-12-01T02:49:41;96649.19;;;3.88;100.00
39141;BME280;24875;48.436;10.298;2022-12-01T02:52:12;96658.53;;;3.70;100.00
39141;BME280;24875;48.436;10.298;2022-12-01T02:54:40;96661.34;;;3.47;100.00
39141;BME280;24875;48.436;10.298;2022-12-01T02:57:10;96658.03;;;3.76;100.00
39141;BME280;24875;48.436;10.298;2022-12-01T02:59:37;96658.53;;;3.70;100.00
39141;BME280;24875;48.436;10.298;2022-12-01T03:02:13;96653.84;;;3.64;100.00
39141;BME280;24875;48.436;10.298;2022-12-01T03:04:54;96656.75;;;3.70;100.00
39141;BME280;24875;48.436;10.298;2022-12-01T03:07:41;96660.78;;;3.74;100.00
39141;BME280;24875;48.436;10.298;2022-12-01T03:10:16;96657.63;;;3.80;100.00
39141;BME280;24875;48.436;10.298;2022-12-01T03:12:52;96661.31;;;3.78;100.00
39141;BME280;24875;48.436;10.298;2022-12-01T03:15:29;96660.13;;;3.62;100.00
39141;BME280;24875;48.436;10.298;2022-12-01T03:18:06;96659.03;;;3.33;100.00
39141;BME280;24875;48.436;10.298;2022-12-01T03:20:40;96659.09;;;3.42;100.00
39141;BME280;24875;48.436;10.298;2022-12-01T03:23:12;96663.03;;;3.37;100.00
39141;BME280;24875;48.436;10.298;2022-12-01T03:25:41;96658.94;;;3.55;100.00
39141;BME280;24875;48.436;10.298;2022-12-01T03:28:12;96655.53;;;3.54;100.00
39141;BME280;24875;48.436;10.298;2022-12-01T03:30:41;96653.06;;;3.53;100.00
39141;BME280;24875;48.436;10.298;2022-12-01T03:33:14;96658.66;;;3.68;100.00
39141;BME280;24875;48.436;10.298;2022-12-01T03:35:48;96656.31;;;3.65;100.00
39141;BME280;24875;48.436;10.298;2022-12-01T03:38:18;96653.00;;;3.63;100.00
39141;BME280;24875;48.436;10.298;2022-12-01T03:40:48;96657.50;;;3.62;100.00
39141;BME280;24875;48.436;10.298;2022-12-01T03:43:19;96663.09;;;3.57;100.00
39141;BME280;24875;48.436;10.298;2022-12-01T03:45:51;96653.72;;;3.65;100.00
39141;BME280;24875;48.436;10.298;2022-12-01T03:48:22;96654.84;;;3.72;100.00
39141;BME280;24875;48.436;10.298;2022-12-01T03:50:55;96651.31;;;3.62;100.00
39141;BME280;24875;48.436;10.298;2022-12-01T03:53:26;96660.50;;;3.77;100.00
39141;BME280;24875;48.436;10.298;2022-12-01T03:55:56;96660.50;;;3.77;100.00
39141;BME280;24875;48.436;10.298;2022-12-01T03:58:30;96649.25;;;3.57;100.00
39141;BME280;24875;48.436;10.298;2022-12-01T04:01:00;96652.06;;;3.54;100.00
39141;BME280;24875;48.436;10.298;2022-12-01T04:03:29;96646.56;;;3.67;100.00
39141;BME280;24875;48.436;10.298;2022-12-01T04:05:55;96652.22;;;3.21;100.00
39141;BME280;24875;48.436;10.298;2022-12-01T04:08:22;96651.94;;;3.35;100.00
39141;BME280;24875;48.436;10.298;2022-12-01T04:10:49;96635.78;;;3.41;100.00
39141;BME280;24875;48.436;10.298;2022-12-01T04:13:16;96654.66;;;3.64;100.00
39141;BME280;24875;48.436;10.298;2022-12-01T04:15:47;96652.53;;;3.59;100.00
39141;BME280;24875;48.436;10.298;2022-12-01T04:18:14;96650.13;;;3.66;100.00
39141;BME280;24875;48.436;10.298;2022-12-01T04:20:43;96655.69;;;3.73;100.00
39141;BME280;24875;48.436;10.298;2022-12-01T04:23:10;96654.47;;;3.77;100.00
39141;BME280;24875;48.436;10.298;2022-12-01T04:25:58;96649.00;;;3.80;100.00
39141;BME280;24875;48.436;10.298;2022-12-01T04:28:25;96664.59;;;3.70;100.00
39141;BME280;24875;48.436;10.298;2022-12-01T04:30:51;96654.16;;;3.70;100.00
39141;BME280;24875;48.436;10.298;2022-12-01T04:33:18;96653.41;;;3.79;100.00
39141;BME280;24875;48.436;10.298;2022-12-01T04:35:55;96650.09;;;3.77;100.00
39141;BME280;24875;48.436;10.298;2022-12-01T04:38:21;96657.50;;;3.30;100.00
39141;BME280;24875;48.436;10.298;2022-12-01T04:40:48;96649.81;;;3.29;100.00
39141;BME280;24875;48.436;10.298;2022-12-01T04:43:14;96658.59;;;3.17;100.00
39141;BME280;24875;48.436;10.298;2022-12-01T04:45:41;96651.75;;;3.16;100.00
39141;BME280;24875;48.436;10.298;2022-12-01T04:48:07;96656.75;;;3.39;100.00
39141;BME280;24875;48.436;10.298;2022-12-01T04:50:34;96655.56;;;3.43;100.00
39141;BME280;24875;48.436;10.298;2022-12-01T04:53:02;96653.94;;;3.62;100.00
39141;BME280;24875;48.436;10.298;2022-12-01T04:55:29;96662.28;;;3.57;100.00
39141;BME280;24875;48.436;10.298;2022-12-01T04:57:56;96659.22;;;3.52;100.00
39141;BME280;24875;48.436;10.298;2022-12-01T05:00:25;96665.56;;;3.27;100.00
39141;BME280;24875;48.436;10.298;2022-12-01T05:02:51;96666.81;;;3.44;100.00
39141;BME280;24875;48.436;10.298;2022-12-01T05:05:18;96660.78;;;3.43;100.00
39141;BME280;24875;48.436;10.298;2022-12-01T05:07:45;96658.47;;;3.61;100.00
39141;BME280;24875;48.436;10.298;2022-12-01T05:10:13;96658.53;;;3.70;100.00
39141;BME280;24875;48.436;10.298;2022-12-01T05:12:39;96652.06;;;3.54;100.00
39141;BME280;24875;48.436;10.298;2022-12-01T05:15:06;96653.91;;;3.73;100.00
39141;BME280;24875;48.436;10.298;2022-12-01T05:17:33;96663.75;;;3.70;100.00
39141;BME280;24875;48.436;10.298;2022-12-01T05:19:59;96661.28;;;3.58;100.00
39141;BME280;24875;48.436;10.298;2022-12-01T05:22:44;96663.47;;;3.53;100.00
39141;BME280;24875;48.436;10.298;2022-12-01T05:25:10;96663.25;;;3.45;100.00
39141;BME280;24875;48.436;10.298;2022-12-01T05:27:38;96657.94;;;3.66;100.00
39141;BME280;24875;48.436;10.298;2022-12-01T05:30:06;96651.22;;;3.64;100.00
39141;BME280;24875;48.436;10.298;2022-12-01T05:32:32;96653.09;;;3.73;100.00
39141;BME280;24875;48.436;10.298;2022-12-01T05:34:59;96658.06;;;3.65;100.00
39141;BME280;24875;48.436;10.298;2022-12-01T05:37:25;96658.78;;;3.36;100.00
39141;BME280;24875;48.436;10.298;2022-12-01T05:39:56;96666.38;;;3.39;100.00
39141;BME280;24875;48.436;10.298;2022-12-01T05:42:22;96654.53;;;3.35;100.00
39141;BME280;24875;48.436;10.298;2022-12-01T05:44:50;96659.09;;;3.42;100.00
39141;BME280;24875;48.436;10.298;2022-12-01T05:47:17;96659.44;;;3.49;100.00
39141;BME280;24875;48.436;10.298;2022-12-01T05:49:43;96664.56;;;3.50;100.00
39141;BME280;24875;48.436;10.298;2022-12-01T05:52:10;96664.91;;;3.46;100.00
39141;BME280;24875;48.436;10.298;2022-12-01T05:54:36;96660.88;;;3.53;100.00
39141;BME280;24875;48.436;10.298;2022-12-01T05:57:03;96662.59;;;3.32;100.00
39141;BME280;24875;48.436;10.298;2022-12-01T05:59:29;96668.31;;;3.15;100.00
39141;BME280;24875;48.436;10.298;2022-12-01T06:01:57;96666.69;;;3.45;100.00
39141;BME280;24875;48.436;10.298;2022-12-01T06:04:24;96668.72;;;3.42;100.00
39141;BME280;24875;48.436;10.298;2022-12-01T06:06:50;96659.66;;;3.57;100.00
39141;BME280;24875;48.436;10.298;2022-12-01T06:09:17;96665.56;;;3.59;100.00
39141;BME280;24875;48.436;10.298;2022-12-01T06:11:43;96677.06;;;3.56;100.00
39141;BME280;24875;48.436;10.298;2022-12-01T06:14:10;96664.84;;;3.36;100.00
39141;BME280;24875;48.436;10.298;2022-12-01T06:16:36;96667.63;;;3.44;100.00
39141;BME280;24875;48.436;10.298;2022-12-01T06:19:04;96669.63;;;3.52;100.00
39141;BME280;24875;48.436;10.298;2022-12-01T06:21:31;96666.09;;;3.53;100.00
39141;BME280;24875;48.436;10.298;2022-12-01T06:23:57;96665.34;;;3.62;100.00
39141;BME280;24875;48.436;10.298;2022-12-01T06:26:24;96665.97;;;3.74;100.00
39141;BME280;24875;48.436;10.298;2022-12-01T06:28:50;96677.38;;;3.62;100.00
39141;BME280;24875;48.436;10.298;2022-12-01T06:31:17;96674.09;;;3.61;100.00
39141;BME280;24875;48.436;10.298;2022-12-01T06:33:43;96678.09;;;3.64;100.00
39141;BME280;24875;48.436;10.298;2022-12-01T06:36:11;96675.78;;;3.82;100.00
39141;BME280;24875;48.436;10.298;2022-12-01T06:38:38;96684.97;;;3.65;100.00
39141;BME280;24875;48.436;10.298;2022-12-01T06:41:04;96677.91;;;3.57;100.00
39141;BME280;24875;48.436;10.298;2022-12-01T06:43:31;96683.63;;;3.71;100.00
39141;BME280;24875;48.436;10.298;2022-12-01T06:45:57;96673.88;;;3.84;100.00
39141;BME280;24875;48.436;10.298;2022-12-01T06:48:24;96688.69;;;3.52;100.00
39141;BME280;24875;48.436;10.298;2022-12-01T06:50:50;96679.16;;;3.73;100.00
39141;BME280;24875;48.436;10.298;2022-12-01T06:53:18;96687.38;;;3.78;100.00
39141;BME280;24875;48.436;10.298;2022-12-01T06:55:44;96685.50;;;3.80;100.00
39141;BME280;24875;48.436;10.298;2022-12-01T06:58:11;96686.13;;;3.72;100.00
39141;BME280;24875;48.436;10.298;2022-12-01T07:00:38;96692.09;;;3.84;100.00
39141;BME280;24875;48.436;10.298;2022-12-01T07:03:04;96695.31;;;3.87;100.00
39141;BME280;24875;48.436;10.298;2022-12-01T07:05:31;96687.81;;;3.94;100.00
39141;BME280;24875;48.436;10.298;2022-12-01T07:07:57;96697.75;;;3.68;100.00
39141;BME280;24875;48.436;10.298;2022-12-01T07:10:25;96701.19;;;3.89;100.00
39141;BME280;24875;48.436;10.298;2022-12-01T07:12:54;96698.69;;;3.67;100.00
39141;BME280;24875;48.436;10.298;2022-12-01T07:15:21;96698.28;;;3.83;100.00
39141;BME280;24875;48.436;10.298;2022-12-01T07:17:48;96698.28;;;3.83;100.00
39141;BME280;24875;48.436;10.298;2022-12-01T07:20:15;96699.34;;;3.80;100.00
39141;BME280;24875;48.436;10.298;2022-12-01T07:22:42;96698.66;;;3.78;100.00
39141;BME280;24875;48.436;10.298;2022-12-01T07:25:08;96705.28;;;3.82;100.00
39141;BME280;24875;48.436;10.298;2022-12-01T07:27:36;96702.94;;;3.79;100.00
39141;BME280;24875;48.436;10.298;2022-12-01T07:30:03;96710.50;;;3.71;100.00
39141;BME280;24875;48.436;10.298;2022-12-01T07:32:30;96716.91;;;3.78;100.00
39141;BME280;24875;48.436;10.298;2022-12-01T07:34:57;96720.31;;;3.79;100.00
39141;BME280;24875;48.436;10.298;2022-12-01T07:37:23;96721.03;;;3.81;100.00
39141;BME280;24875;48.436;10.298;2022-12-01T07:39:50;96721.59;;;3.84;100.00
39141;BME280;24875;48.436;10.298;2022-12-01T07:42:16;96725.53;;;3.48;100.00
39141;BME280;24875;48.436;10.298;2022-12-01T07:44:44;96727.78;;;3.83;100.00
39141;BME280;24875;48.436;10.298;2022-12-01T07:47:10;96725.31;;;3.82;100.00
39141;BME280;24875;48.436;10.298;2022-12-01T07:49:37;96723.72;;;3.90;100.00
39141;BME280;24875;48.436;10.298;2022-12-01T07:52:03;96732.75;;;3.86;100.00
39141;BME280;24875;48.436;10.298;2022-12-01T07:54:30;96722.06;;;3.89;100.00
39141;BME280;24875;48.436;10.298;2022-12-01T07:56:56;96719.41;;;4.00;100.00
39141;BME280;24875;48.436;10.298;2022-12-01T07:59:23;96720.81;;;4.04;100.00
39141;BME280;24875;48.436;10.298;2022-12-01T08:01:51;96727.94;;;4.02;100.00
39141;BME280;24875;48.436;10.298;2022-12-01T08:04:17;96721.91;;;3.70;100.00
39141;BME280;24875;48.436;10.298;2022-12-01T08:06:44;96728.28;;;3.77;100.00
39141;BME280;24875;48.436;10.298;2022-12-01T08:09:10;96731.50;;;4.01;100.00
39141;BME280;24875;48.436;10.298;2022-12-01T08:11:36;96732.47;;;3.89;100.00
39141;BME280;24875;48.436;10.298;2022-12-01T08:14:03;96733.59;;;4.07;100.00
39141;BME280;24875;48.436;10.298;2022-12-01T08:16:30;96727.09;;;4.02;100.00
39141;BME280;24875;48.436;10.298;2022-12-01T08:18:58;96734.19;;;3.79;100.00
39141;BME280;24875;48.436;10.298;2022-12-01T08:21:24;96733.75;;;3.74;100.00
39141;BME280;24875;48.436;10.298;2022-12-01T08:23:52;96729.78;;;3.91;100.00
39141;BME280;24875;48.436;10.298;2022-12-01T08:26:20;96731.34;;;3.82;100.00
39141;BME280;24875;48.436;10.298;2022-12-01T08:28:47;96728.94;;;3.90;100.00
39141;BME280;24875;48.436;10.298;2022-12-01T08:31:17;96721.53;;;4.06;100.00
39141;BME280;24875;48.436;10.298;2022-12-01T08:33:44;96723.88;;;4.09;100.00
39141;BME280;24875;48.436;10.298;2022-12-01T08:36:12;96717.63;;;4.21;100.00
39141;BME280;24875;48.436;10.298;2022-12-01T08:38:41;96715.34;;;4.07;100.00
39141;BME280;24875;48.436;10.298;2022-12-01T08:41:08;96718.75;;;3.87;100.00
39141;BME280;24875;48.436;10.298;2022-12-01T08:43:35;96726.25;;;3.81;100.00
39141;BME280;24875;48.436;10.298;2022-12-01T08:46:05;96718.66;;;4.09;100.00
39141;BME280;24875;48.436;10.298;2022-12-01T08:48:32;96721.59;;;3.84;100.00
39141;BME280;24875;48.436;10.298;2022-12-01T08:51:03;96714.13;;;3.91;100.00
39141;BME280;24875;48.436;10.298;2022-12-01T08:53:33;96722.16;;;3.99;100.00
39141;BME280;24875;48.436;10.298;2022-12-01T08:56:00;96725.13;;;3.94;100.00
39141;BME280;24875;48.436;10.298;2022-12-01T08:58:27;96726.19;;;3.92;100.00
39141;BME280;24875;48.436;10.298;2022-12-01T09:01:00;96721.56;;;3.95;100.00
39141;BME280;24875;48.436;10.298;2022-12-01T09:03:26;96731.59;;;3.79;100.00
39141;BME280;24875;48.436;10.298;2022-12-01T09:05:53;96728.44;;;3.96;100.00
39141;BME280;24875;48.436;10.298;2022-12-01T09:08:19;96727.19;;;4.11;100.00
39141;BME280;24875;48.436;10.298;2022-12-01T09:11:03;96732.41;;;4.11;100.00
39141;BME280;24875;48.436;10.298;2022-12-01T09:13:33;96731.50;;;4.01;100.00
39141;BME280;24875;48.436;10.298;2022-12-01T09:16:01;96730.75;;;4.10;100.00
39141;BME280;24875;48.436;10.298;2022-12-01T09:18:28;96728.28;;;4.09;100.00
39141;BME280;24875;48.436;10.298;2022-12-01T09:20:55;96733.28;;;4.21;100.00
39141;BME280;24875;48.436;10.298;2022-12-01T09:23:23;96731.66;;;4.20;100.00
39141;BME280;24875;48.436;10.298;2022-12-01T09:25:50;96732.91;;;4.05;100.00
39141;BME280;24875;48.436;10.298;2022-12-01T09:28:19;96731.25;;;4.24;100.00
39141;BME280;24875;48.436;10.298;2022-12-01T09:30:46;96723.81;;;4.40;100.00
39141;BME280;24875;48.436;10.298;2022-12-01T09:33:12;96722.72;;;4.43;100.00
39141;BME280;24875;48.436;10.298;2022-12-01T09:35:39;96729.47;;;4.25;100.00
39141;BME280;24875;48.436;10.298;2022-12-01T09:38:05;96723.28;;;4.26;100.00
39141;BME280;24875;48.436;10.298;2022-12-01T09:40:36;96729.34;;;4.26;100.00
39141;BME280;24875;48.436;10.298;2022-12-01T09:43:05;96721.59;;;4.36;100.00
39141;BME280;24875;48.436;10.298;2022-12-01T09:45:40;96724.00;;;4.48;100.00
39141;BME280;24875;48.436;10.298;2022-12-01T09:48:20;96728.47;;;4.37;100.00
39141;BME280;24875;48.436;10.298;2022-12-01T09:50:47;96723.81;;;4.40;100.00
39141;BME280;24875;48.436;10.298;2022-12-01T09:53:17;96719.91;;;4.35;100.00
39141;BME280;24875;48.436;10.298;2022-12-01T09:55:46;96726.75;;;4.26;100.00
39141;BME280;24875;48.436;10.298;2022-12-01T09:58:16;96720.19;;;4.32;100.00
39141;BME280;24875;48.436;10.298;2022-12-01T10:00:45;96723.47;;;4.34;100.00
39141;BME280;24875;48.436;10.298;2022-12-01T10:03:23;96724.38;;;4.44;100.00
39141;BME280;24875;48.436;10.298;2022-12-01T10:05:53;96719.91;;;4.35;100.00
39141;BME280;24875;48.436;10.298;2022-12-01T10:08:22;96715.16;;;4.20;100.00
39141;BME280;24875;48.436;10.298;2022-12-01T10:10:51;96714.25;;;4.30;100.00
39141;BME280;24875;48.436;10.298;2022-12-01T10:13:21;96706.81;;;4.46;100.00
39141;BME280;24875;48.436;10.298;2022-12-01T10:15:55;96711.97;;;4.36;100.00
39141;BME280;24875;48.436;10.298;2022-12-01T10:18:34;96699.75;;;4.57;100.00
39141;BME280;24875;48.436;10.298;2022-12-01T10:21:08;96707.13;;;4.52;100.00
39141;BME280;24875;48.436;10.298;2022-12-01T10:23:45;96704.34;;;4.44;100.00
39141;BME280;24875;48.436;10.298;2022-12-01T10:26:19;96699.88;;;4.56;100.00
39141;BME280;24875;48.436;10.298;2022-12-01T10:29:08;96693.47;;;4.69;100.00
39141;BME280;24875;48.436;10.298;2022-12-01T10:31:43;96681.84;;;4.53;100.00
39141;BME280;24875;48.436;10.298;2022-12-01T10:34:15;96685.84;;;4.27;100.00
39141;BME280;24875;48.436;10.298;2022-12-01T10:36:41;96683.66;;;4.32;100.00
39141;BME280;24875;48.436;10.298;2022-12-01T10:39:16;96687.06;;;4.53;100.00
39141;BME280;24875;48.436;10.298;2022-12-01T10:41:43;96684.78;;;4.39;100.00
39141;BME280;24875;48.436;10.298;2022-12-01T10:44:11;96685.09;;;4.45;100.00
39141;BME280;24875;48.436;10.298;2022-12-01T10:46:43;96682.50;;;4.45;100.00
39141;BME280;24875;48.436;10.298;2022-12-01T10:49:13;96680.34;;;4.30;100.00
39141;BME280;24875;48.436;10.298;2022-12-01T10:51:55;96673.84;;;4.45;100.00
39141;BME280;24875;48.436;10.298;2022-12-01T10:54:31;96673.06;;;4.54;100.00
39141;BME280;24875;48.436;10.298;2022-12-01T10:56:58;96680.81;;;4.15;100.00
39141;BME280;24875;48.436;10.298;2022-12-01T10:59:29;96669.91;;;4.30;100.00
39141;BME280;24875;48.436;10.298;2022-12-01T11:01:58;96668.19;;;4.40;100.00
39141;BME280;24875;48.436;10.298;2022-12-01T11:04:35;96663.72;;;4.51;100.00
39141;BME280;24875;48.436;10.298;2022-12-01T11:07:14;96670.03;;;4.49;100.00
39141;BME280;24875;48.436;10.298;2022-12-01T11:09:44;96665.41;;;4.62;100.00
39141;BME280;24875;48.436;10.298;2022-12-01T11:12:14;96659.94;;;4.65;100.00
39141;BME280;24875;48.436;10.298;2022-12-01T11:14:43;96670.13;;;4.68;100.00
39141;BME280;24875;48.436;10.298;2022-12-01T11:17:28;96657.25;;;4.46;100.00
39141;BME280;24875;48.436;10.298;2022-12-01T11:19:55;96667.03;;;4.53;100.00
39141;BME280;24875;48.436;10.298;2022-12-01T11:22:24;96663.25;;;4.67;100.00
39141;BME280;24875;48.436;10.298;2022-12-01T11:24:59;96654.72;;;4.65;100.00
39141;BME280;24875;48.436;10.298;2022-12-01T11:27:29;96661.03;;;4.62;100.00
39141;BME280;24875;48.436;10.298;2022-12-01T11:29:58;96658.31;;;4.73;100.00
39141;BME280;24875;48.436;10.298;2022-12-01T11:32:32;96655.06;;;4.81;100.00
39141;BME280;24875;48.436;10.298;2022-12-01T11:35:02;96661.13;;;4.90;100.00
39141;BME280;24875;48.436;10.298;2022-12-01T11:37:32;96660.88;;;4.93;100.00
39141;BME280;24875;48.436;10.298;2022-12-01T11:40:14;96647.00;;;4.93;100.00
39141;BME280;24875;48.436;10.298;2022-12-01T11:42:47;96649.84;;;4.90;100.00
39141;BME280;24875;48.436;10.298;2022-12-01T11:45:25;96651.75;;;4.79;100.00
39141;BME280;24875;48.436;10.298;2022-12-01T11:48:00;96647.94;;;4.92;100.00
39141;BME280;24875;48.436;10.298;2022-12-01T11:50:29;96652.59;;;4.88;100.00
39141;BME280;24875;48.436;10.298;2022-12-01T11:52:55;96651.56;;;5.00;100.00
39141;BME280;24875;48.436;10.298;2022-12-01T11:55:25;96654.97;;;4.91;100.00
39141;BME280;24875;48.436;10.298;2022-12-01T11:57:53;96643.41;;;4.55;100.00
39141;BME280;24875;48.436;10.298;2022-12-01T12:00:23;96645.41;;;4.81;100.00
39141;BME280;24875;48.436;10.298;2022-12-01T12:03:13;96647.25;;;4.90;100.00
39141;BME280;24875;48.436;10.298;2022-12-01T12:05:55;96647.66;;;4.85;100.00
39141;BME280;24875;48.436;10.298;2022-12-01T12:08:32;96642.94;;;4.80;100.00
39141;BME280;24875;48.436;10.298;2022-12-01T12:11:07;96646.16;;;4.53;100.00
39141;BME280;24875;48.436;10.298;2022-12-01T12:13:58;96649.81;;;4.81;100.00
39141;BME280;24875;48.436;10.298;2022-12-01T12:16:39;96634.94;;;4.62;100.00
39141;BME280;24875;48.436;10.298;2022-12-01T12:19:34;96639.00;;;4.85;100.00
39141;BME280;24875;48.436;10.298;2022-12-01T12:22:18;96637.91;;;4.87;100.00
39141;BME280;24875;48.436;10.298;2022-12-01T12:24:58;96635.84;;;4.91;100.00
39141;BME280;24875;48.436;10.298;2022-12-01T12:27:36;96644.81;;;5.07;100.00
39141;BME280;24875;48.436;10.298;2022-12-01T12:30:20;96637.94;;;4.97;100.00
39141;BME280;24875;48.436;10.298;2022-12-01T12:33:11;96636.13;;;4.97;100.00
39141;BME280;24875;48.436;10.298;2022-12-01T12:35:49;96630.75;;;4.89;100.00
39141;BME280;24875;48.436;10.298;2022-12-01T12:38:29;96632.28;;;5.01;100.00
39141;BME280;24875;48.436;10.298;2022-12-01T12:41:10;96633.69;;;5.05;100.00
39141;BME280;24875;48.436;10.298;2022-12-01T12:43:46;96621.31;;;5.07;100.00
39141;BME280;24875;48.436;10.298;2022-12-01T12:46:23;96625.31;;;5.11;100.00
39141;BME280;24875;48.436;10.298;2022-12-01T12:49:04;96624.50;;;5.20;100.00
39141;BME280;24875;48.436;10.298;2022-12-01T12:51:41;96631.25;;;5.13;100.00
39141;BME280;24875;48.436;10.298;2022-12-01T12:54:19;96624.34;;;5.22;100.00
39141;BME280;24875;48.436;10.298;2022-12-01T12:56:51;96629.31;;;5.15;100.00
39141;BME280;24875;48.436;10.298;2022-12-01T12:59:23;96629.47;;;5.23;100.00
39141;BME280;24875;48.436;10.298;2022-12-01T13:01:58;96629.31;;;5.15;100.00
39141;BME280;24875;48.436;10.298;2022-12-01T13:04:33;96633.28;;;5.10;100.00
39141;BME280;24875;48.436;10.298;2022-12-01T13:07:12;96635.78;;;5.21;100.00